• Join FlightAware (Why Join?)
  • Login
  • US Flag 
12:10AM EST


 

Airport Tracker/Info


-or-


 

Live Flight TrackerFlight Track Log ✈ AWI3778 ✈ 15-Aug-2013 ✈ KBTV - KPHL

Flight Track Log - Related Links

Times and Time Zones

All times are in EDT time to prevent confusion due to time zone crossing. See the AWI3778 flight status page for this flight to view local times or setup timezone preferences in your user account.

Time Position Orientation Groundspeed Altitude Reporting Facility
EDT Latitude Longitude Course Direction KTS MPH feet Rate Location/Type
01:33PM 44.2653 -73.1533 197° South 284 327 7,800  Level Boston Center
01:34PM 44.1903 -73.1869 198° South 289 333 9,900 1,380 Climbing Boston Center
01:35PM 44.0961 -73.2092 190° South 324 373 10,700 1,500 Climbing Boston Center
01:36PM 43.8600 -73.3815 195° South  Level FlightAware Approximate
01:36PM 44.0003 -73.2222 186° South 348 400 13,000  Level Boston Center
01:37PM 43.7586 -73.4189 195° South  Level FlightAware Approximate
01:37PM 43.9186 -73.2989 214° Southwest 353 406 14,800  Level Boston Center
01:38PM 43.8367 -73.3814 216° Southwest 358 412 16,600 1,620 Climbing Boston Center
01:39PM 43.7547 -73.4606 215° Southwest 368 423 18,100 1,380 Climbing Boston Center
01:40PM 43.6725 -73.5394 215° Southwest 368 423 19,400 1,140 Climbing Boston Center
01:41PM 43.5864 -73.6181 213° Southwest 368 423 20,400 1,020 Climbing Boston Center
01:42PM 43.5022 -73.7025 216° Southwest 373 429 21,500 1,020 Climbing Boston Center
01:43PM 43.4158 -73.7864 215° Southwest 379 436 22,500 1,020 Climbing Boston Center
01:44PM 43.3231 -73.8756 215° Southwest 379 436 23,600 720 Climbing Boston Center
01:45PM 43.2450 -73.9508 215° Southwest 385 443 24,000 180 Climbing Boston Center
01:46PM 43.1478 -74.0422 214° Southwest 385 443 24,000  Level Boston Center
01:47PM 43.0589 -74.1308 216° Southwest 392 451 24,000  Level Boston Center
01:48PM 42.9681 -74.2164 215° Southwest 397 457 24,000  Level Boston Center
01:49PM 42.8769 -74.3017 214° Southwest 407 468 24,000  Level Boston Center
01:50PM 42.7858 -74.3894 215° Southwest 407 468 24,000  Level Boston Center
01:51PM 42.6947 -74.4769 215° Southwest 407 468 24,000  Level Boston Center
01:52PM 42.6036 -74.5614 214° Southwest 407 468 24,000  Level Boston Center
01:53PM 42.5103 -74.6483 214° Southwest 402 463 24,000  Level Boston Center
01:54PM 42.4275 -74.7269 215° Southwest 402 463 24,000  Level Boston Center
01:56PM 42.2347 -74.8964 213° Southwest 418 481 24,000 -660 Level New York Center
01:57PM 42.1358 -74.9825 213° Southwest 418 481 22,000 -1,920 Descending New York Center
01:58PM 42.0350 -75.0711 213° Southwest 431 496 20,200 -1,560 Descending New York Center
01:59PM 41.9361 -75.1567 213° Southwest 436 502 19,000 -600 Descending New York Center
02:00PM 41.8286 -75.2469 212° Southwest 429 494 19,000  Level New York Center
02:01PM 41.7319 -75.3239 211° Southwest 417 480 19,000 -1,080 Level New York Center
02:02PM 41.6353 -75.4031 211° Southwest 417 480 16,900 -2,220 Descending New York Center
02:03PM 41.5514 -75.4694 211° Southwest 412 474 14,600 -2,340 Descending New York Center
02:04PM 41.4611 -75.5406 211° Southwest 398 458 12,300 -1,320 Descending New York Center
02:05PM 41.3619 -75.6192 211° Southwest 392 451 12,000 -540 Descending New York Center
02:06PM 41.2717 -75.6872 210° Southwest 392 451 11,300 -900 Descending New York Center
02:07PM 41.1633 -75.6878 180° South 373 429 10,300 -720 Descending New York Center
02:08PM 41.0656 -75.6861 179° South 391 450 10,000 -180 Descending New York Center
02:09PM 40.9614 -75.6869 180° South 380 437 10,000  Level New York Center
02:10PM 40.8550 -75.6875 180° South 380 437 10,000  Level New York Center
02:11PM 40.7428 -75.6847 179° South 380 437 10,000  Level New York Center
02:12PM 40.6386 -75.6856 180° South 380 437 10,000  Level New York Center
02:13PM 40.5631 -75.6419 156° South 341 392 10,000  Level New York Center
02:14PM 40.5089 -75.5425 126° Southeast 328 377 10,000  Level New York Center
02:15PM 40.4450 -75.4236 125° Southeast 351 404 10,000  Level New York Center
02:16PM 40.3578 -75.3606 151° Southeast 360 414 10,000 -180 Level New York Center
02:17PM 40.2800 -75.3200 158° South 346 398 9,700 -1,260 Descending New York Center
02:18PM 40.1961 -75.2792 160° South 307 353 7,600 -1,320 Descending New York Center
02:19PM 40.1167 -75.2333 156° South 288 331 7,000 -1,020 Descending Philadelphia TRACON
02:20PM 40.0333 -75.2167 171° South 278 320 5,500 -1,500 Descending Philadelphia TRACON
02:21PM 39.9667 -75.1833 159° South 274 315 4,100 -780 Descending Philadelphia TRACON
02:22PM 39.9000 -75.1500 159° South 203 234 4,000 -840 Descending Philadelphia TRACON
02:23PM 39.8500 -75.1333 166° South 202 232 2,400 -1,200 Descending Philadelphia TRACON
02:24PM 39.8000 -75.1500 194° South 182 209 1,600 -540 Descending Philadelphia TRACON
02:25PM 39.8000 -75.2000 270° West 167 192 1,400 -480 Descending Philadelphia TRACON
02:26PM 39.8500 -75.2167 346° North 144 166 600 -840 Descending Philadelphia TRACON